createdAt,value
2022-08-23T00:01:43.780Z,5.33
2022-08-23T00:04:13.652Z,3.63
2022-08-23T00:06:42.349Z,3.60
2022-08-23T00:09:10.194Z,3.97
2022-08-23T00:11:40.280Z,3.83
2022-08-23T00:14:10.116Z,3.83
2022-08-23T00:16:39.181Z,3.83
2022-08-23T00:19:07.985Z,3.70
2022-08-23T00:21:36.424Z,3.70
2022-08-23T00:24:04.822Z,3.07
2022-08-23T00:26:50.310Z,3.63
2022-08-23T00:29:18.189Z,3.53
2022-08-23T00:31:46.844Z,3.60
2022-08-23T00:34:14.062Z,3.23
2022-08-23T00:36:41.127Z,3.87
2022-08-23T00:39:08.097Z,4.23
2022-08-23T00:41:35.760Z,3.57
2022-08-23T00:44:21.972Z,4.20
2022-08-23T00:47:12.283Z,3.60
2022-08-23T00:49:40.752Z,3.37
2022-08-23T00:52:10.981Z,3.87
2022-08-23T00:54:41.328Z,3.60
2022-08-23T00:57:11.059Z,3.73
2022-08-23T00:59:38.565Z,4.17
2022-08-23T01:02:08.343Z,3.37
2022-08-23T01:04:40.059Z,4.33
2022-08-23T01:07:12.608Z,3.30
2022-08-23T01:09:41.571Z,4.17
2022-08-23T01:12:15.048Z,3.03
2022-08-23T01:14:46.262Z,4.20
2022-08-23T01:17:19.187Z,3.10
2022-08-23T01:19:52.664Z,2.70
2022-08-23T01:22:25.970Z,4.83
2022-08-23T01:25:06.553Z,5.00
2022-08-23T01:27:37.912Z,4.30
2022-08-23T01:30:07.961Z,3.80
2022-08-23T01:32:38.429Z,3.37
2022-08-23T01:35:06.218Z,3.70
2022-08-23T01:37:34.298Z,3.10
2022-08-23T01:40:02.897Z,4.27
2022-08-23T01:42:31.031Z,3.73
2022-08-23T01:44:58.557Z,3.53
2022-08-23T01:47:25.713Z,3.30
2022-08-23T01:49:53.366Z,3.07
2022-08-23T01:52:20.703Z,4.87
2022-08-23T01:54:47.597Z,3.67
2022-08-23T01:57:16.393Z,3.30
2022-08-23T01:59:43.739Z,3.00
2022-08-23T02:02:11.399Z,4.07
2022-08-23T02:04:38.452Z,4.50
2022-08-23T02:07:05.383Z,3.13
2022-08-23T02:09:32.312Z,3.87
2022-08-23T02:12:00.890Z,4.00
2022-08-23T02:14:31.292Z,3.93
2022-08-23T02:17:04.236Z,3.10
2022-08-23T02:19:35.958Z,3.47
2022-08-23T02:22:05.402Z,4.93
2022-08-23T02:24:33.379Z,4.63
2022-08-23T02:27:02.885Z,3.97
2022-08-23T02:29:35.269Z,4.50
2022-08-23T02:32:07.592Z,3.10
2022-08-23T02:37:22.531Z,4.50
2022-08-23T02:39:49.901Z,3.17
2022-08-23T02:42:17.876Z,4.17
2022-08-23T02:44:46.942Z,3.73
2022-08-23T02:47:14.679Z,3.83
2022-08-23T02:49:48.640Z,4.00
2022-08-23T02:52:15.676Z,3.13
2022-08-23T02:54:44.097Z,3.33
2022-08-23T02:57:11.605Z,4.17
2022-08-23T02:59:38.941Z,4.33
2022-08-23T03:02:07.442Z,3.20
2022-08-23T03:04:39.501Z,4.13
2022-08-23T03:07:06.650Z,3.93
2022-08-23T03:09:34.711Z,3.70
2022-08-23T03:12:01.684Z,3.60
2022-08-23T03:14:32.753Z,3.83
2022-08-23T03:17:00.967Z,3.70
2022-08-23T03:19:30.065Z,3.93
2022-08-23T03:21:57.058Z,3.23
2022-08-23T03:24:24.351Z,3.77
2022-08-23T03:26:51.585Z,3.97
2022-08-23T03:29:19.716Z,4.23
2022-08-23T03:31:59.092Z,4.40
2022-08-23T03:34:26.695Z,3.30
2022-08-23T03:36:56.239Z,4.30
2022-08-23T03:39:23.412Z,3.70
2022-08-23T03:41:50.457Z,3.40
2022-08-23T03:44:18.349Z,3.67
2022-08-23T03:46:45.913Z,5.90
2022-08-23T03:49:12.798Z,4.97
2022-08-23T03:51:52.237Z,3.73
2022-08-23T03:54:20.741Z,4.07
2022-08-23T03:56:53.500Z,3.60
2022-08-23T03:59:21.527Z,3.77
2022-08-23T04:01:49.276Z,3.57
2022-08-23T04:04:16.630Z,5.07
2022-08-23T04:07:02.434Z,3.60
2022-08-23T04:09:30.932Z,3.70
2022-08-23T04:11:57.960Z,3.77
2022-08-23T04:14:24.911Z,3.77
2022-08-23T04:16:52.345Z,3.93
2022-08-23T04:19:23.168Z,5.03
2022-08-23T04:22:00.774Z,5.30
2022-08-23T04:24:35.304Z,4.10
2022-08-23T04:27:02.275Z,4.70
2022-08-23T04:29:34.393Z,8.70
2022-08-23T04:32:05.309Z,4.50
2022-08-23T04:34:35.087Z,3.30
2022-08-23T04:37:02.306Z,4.23
2022-08-23T04:39:29.658Z,4.10
2022-08-23T04:42:17.090Z,4.63
2022-08-23T04:44:44.747Z,6.30
2022-08-23T04:47:12.272Z,5.77
2022-08-23T04:49:39.172Z,4.13
2022-08-23T04:52:06.619Z,4.87
2022-08-23T04:54:33.540Z,4.10
2022-08-23T04:57:27.207Z,3.73
2022-08-23T04:59:54.157Z,3.67
2022-08-23T05:02:21.949Z,3.93
2022-08-23T05:04:48.904Z,6.67
2022-08-23T05:07:16.693Z,4.33
2022-08-23T05:09:43.804Z,3.67
2022-08-23T05:12:11.346Z,4.27
2022-08-23T05:14:39.601Z,3.83
2022-08-23T05:17:06.694Z,4.70
2022-08-23T05:19:37.503Z,5.23
2022-08-23T05:22:12.136Z,5.37
2022-08-23T05:25:00.079Z,4.80
2022-08-23T05:27:27.132Z,6.60
2022-08-23T05:29:55.530Z,4.93
2022-08-23T05:32:23.122Z,5.67
2022-08-23T05:34:50.194Z,3.70
2022-08-23T05:37:17.448Z,3.67
2022-08-23T05:39:44.574Z,4.10
2022-08-23T05:42:14.074Z,4.13
2022-08-23T05:44:42.092Z,5.33
2022-08-23T05:47:15.154Z,6.50
2022-08-23T05:49:53.368Z,4.53
2022-08-23T05:52:21.201Z,4.17
2022-08-23T05:54:48.106Z,5.00
2022-08-23T05:57:34.595Z,4.17
2022-08-23T06:00:02.334Z,6.53
2022-08-23T06:02:31.407Z,4.33
2022-08-23T06:04:58.276Z,6.43
2022-08-23T06:07:25.668Z,4.50
2022-08-23T06:09:54.944Z,4.33
2022-08-23T06:12:21.946Z,6.37
2022-08-23T06:14:49.370Z,5.97
2022-08-23T06:17:16.377Z,4.30
2022-08-23T06:19:44.675Z,4.80
2022-08-23T06:22:24.731Z,4.60
2022-08-23T06:24:51.960Z,5.47
2022-08-23T06:27:19.079Z,6.20
2022-08-23T06:29:46.160Z,5.57
2022-08-23T06:32:31.082Z,4.33
2022-08-23T06:35:38.129Z,5.67
2022-08-23T06:38:20.836Z,4.40
2022-08-23T06:40:50.530Z,5.67
2022-08-23T06:43:26.352Z,5.07
2022-08-23T06:46:09.999Z,3.83
2022-08-23T06:48:39.011Z,5.37
2022-08-23T06:51:12.646Z,6.17
2022-08-23T06:53:56.472Z,3.90
2022-08-23T06:56:45.171Z,5.40
2022-08-23T06:59:27.229Z,5.53
2022-08-23T07:02:01.771Z,5.17
2022-08-23T07:04:55.733Z,5.23
2022-08-23T07:07:39.808Z,4.27
2022-08-23T07:10:13.798Z,4.43
2022-08-23T07:12:42.603Z,3.73
2022-08-23T07:15:11.661Z,5.33
2022-08-23T07:17:39.743Z,4.97
2022-08-23T07:20:07.848Z,3.07
2022-08-23T07:22:38.547Z,5.60
2022-08-23T07:25:06.105Z,6.90
2022-08-23T07:27:34.508Z,4.70
2022-08-23T07:30:05.524Z,4.00
2022-08-23T07:32:32.624Z,4.80
2022-08-23T07:35:08.044Z,3.20
2022-08-23T07:37:38.022Z,4.77
2022-08-23T07:40:08.664Z,3.60
2022-08-23T07:42:35.859Z,3.27
2022-08-23T07:45:03.843Z,3.53
2022-08-23T07:47:33.663Z,3.47
2022-08-23T07:50:00.940Z,2.90
2022-08-23T07:52:29.773Z,2.73
2022-08-23T07:54:59.039Z,3.50
2022-08-23T07:57:46.296Z,3.37
2022-08-23T08:00:46.307Z,3.20
2022-08-23T08:03:31.368Z,3.37
2022-08-23T08:06:12.459Z,4.27
2022-08-23T08:08:41.011Z,2.87
2022-08-23T08:11:11.397Z,2.97
2022-08-23T08:13:39.401Z,2.90
2022-08-23T08:16:08.555Z,3.80
2022-08-23T08:18:39.709Z,3.37
2022-08-23T08:21:45.347Z,4.47
2022-08-23T08:24:47.323Z,2.60
2022-08-23T08:27:15.697Z,4.77
2022-08-23T08:29:43.965Z,3.33
2022-08-23T08:32:13.828Z,4.13
2022-08-23T08:34:41.792Z,2.97
2022-08-23T08:37:08.956Z,3.17
2022-08-23T08:39:36.431Z,2.30
2022-08-23T08:42:22.355Z,4.37
2022-08-23T08:44:53.041Z,4.23
2022-08-23T08:47:34.120Z,3.60
2022-08-23T08:50:07.593Z,3.27
2022-08-23T08:52:39.550Z,3.10
2022-08-23T08:55:18.081Z,4.90
2022-08-23T08:57:54.918Z,3.67
2022-08-23T09:00:25.192Z,2.50
2022-08-23T09:02:52.536Z,4.23
2022-08-23T09:05:24.472Z,3.93
2022-08-23T09:08:04.413Z,3.50
2022-08-23T09:10:49.927Z,3.10
2022-08-23T09:13:55.822Z,3.57
2022-08-23T09:16:37.856Z,3.57
2022-08-23T09:19:05.541Z,2.97
2022-08-23T09:21:43.589Z,2.70
2022-08-23T09:24:10.714Z,2.47
2022-08-23T09:26:54.296Z,3.97
2022-08-23T09:29:25.187Z,4.00
2022-08-23T09:31:54.092Z,2.90
2022-08-23T09:34:38.706Z,4.05
2022-08-23T09:37:17.661Z,2.58
2022-08-23T09:39:49.520Z,4.40
2022-08-23T09:42:31.722Z,2.78
2022-08-23T09:45:01.197Z,3.63
2022-08-23T09:47:44.524Z,1.90
2022-08-23T09:50:26.169Z,3.60
2022-08-23T09:52:58.607Z,2.45
2022-08-23T09:55:31.709Z,4.50
2022-08-23T09:58:00.114Z,3.38
2022-08-23T10:00:32.438Z,1.95
2022-08-23T10:03:25.443Z,3.20
2022-08-23T10:05:59.701Z,2.60
2022-08-23T10:08:33.115Z,2.95
2022-08-23T10:11:12.954Z,2.00
2022-08-23T10:13:42.848Z,2.70
2022-08-23T10:16:22.681Z,1.77
2022-08-23T10:19:07.396Z,2.85
2022-08-23T10:21:41.430Z,1.90
2022-08-23T10:24:22.627Z,1.98
2022-08-23T10:27:28.437Z,1.75
2022-08-23T10:30:05.067Z,3.20
2022-08-23T10:32:46.305Z,1.83
2022-08-23T10:35:31.564Z,1.88
2022-08-23T10:38:41.259Z,1.63
2022-08-23T10:41:23.115Z,3.70
2022-08-23T10:43:59.502Z,2.55
2022-08-23T10:46:29.947Z,2.40
2022-08-23T10:49:01.207Z,3.15
2022-08-23T10:51:35.069Z,1.73
2022-08-23T10:54:07.827Z,2.47
2022-08-23T10:56:42.917Z,2.47
2022-08-23T10:59:20.744Z,2.30
2022-08-23T11:01:55.365Z,2.35
2022-08-23T11:04:29.668Z,2.55
2022-08-23T11:07:18.079Z,4.65
2022-08-23T11:09:53.326Z,2.08
2022-08-23T11:12:28.928Z,3.65
2022-08-23T11:15:18.644Z,2.42
2022-08-23T11:17:59.834Z,2.17
2022-08-23T11:20:59.798Z,2.10
2022-08-23T11:23:50.632Z,1.60
2022-08-23T11:27:05.353Z,1.77
2022-08-23T11:29:37.414Z,3.40
2022-08-23T11:32:47.074Z,2.25
2022-08-23T11:35:35.330Z,2.58
2022-08-23T11:38:05.351Z,2.45
2022-08-23T11:41:13.387Z,1.98
2022-08-23T11:43:42.210Z,2.80
2022-08-23T11:46:34.537Z,2.28
2022-08-23T11:49:57.365Z,2.75
2022-08-23T11:52:52.182Z,2.50
2022-08-23T11:55:47.373Z,3.35
2022-08-23T11:58:23.404Z,4.20
2022-08-23T12:01:10.797Z,2.30
2022-08-23T12:03:54.282Z,2.28
2022-08-23T12:06:50.677Z,2.67
2022-08-23T12:09:51.902Z,2.60
2022-08-23T12:12:32.463Z,2.53
2022-08-23T12:15:06.703Z,2.78
2022-08-23T12:18:05.815Z,2.30
2022-08-23T12:20:34.540Z,2.35
2022-08-23T12:23:14.682Z,3.17
2022-08-23T12:25:45.445Z,4.47
2022-08-23T12:28:42.386Z,2.72
2022-08-23T12:31:20.303Z,2.65
2022-08-23T12:34:03.726Z,3.95
2022-08-23T12:36:41.397Z,1.95
2022-08-23T12:39:21.446Z,1.98
2022-08-23T12:41:56.601Z,2.60
2022-08-23T12:44:28.139Z,3.40
2022-08-23T12:46:56.613Z,3.63
2022-08-23T12:49:28.268Z,4.68
2022-08-23T12:51:59.332Z,3.53
2022-08-23T12:54:36.974Z,2.08
2022-08-23T12:57:12.018Z,2.47
2022-08-23T12:59:48.943Z,2.83
2022-08-23T13:02:25.952Z,1.90
2022-08-23T13:04:58.549Z,2.67
2022-08-23T13:07:26.909Z,2.28
2022-08-23T13:09:55.622Z,3.00
2022-08-23T13:12:23.632Z,3.05
2022-08-23T13:14:54.173Z,2.20
2022-08-23T13:17:32.634Z,4.15
2022-08-23T13:20:23.142Z,4.15
2022-08-23T13:22:59.973Z,2.75
2022-08-23T13:25:32.112Z,3.03
2022-08-23T13:28:01.444Z,3.50
2022-08-23T13:30:31.634Z,4.22
2022-08-23T13:33:18.365Z,3.00
2022-08-23T13:35:49.722Z,2.25
2022-08-23T13:38:23.165Z,2.60
2022-08-23T13:40:57.979Z,3.70
2022-08-23T13:43:29.053Z,3.78
2022-08-23T13:45:59.679Z,3.15
2022-08-23T13:48:30.702Z,2.22
2022-08-23T13:51:20.717Z,3.40
2022-08-23T13:53:47.919Z,2.70
2022-08-23T13:56:16.023Z,4.28
2022-08-23T13:58:51.959Z,2.17
2022-08-23T14:01:20.757Z,3.88
2022-08-23T14:03:47.743Z,2.47
2022-08-23T14:06:14.949Z,2.47
2022-08-23T14:08:41.878Z,2.10
2022-08-23T14:11:10.462Z,2.28
2022-08-23T14:13:37.737Z,2.70
2022-08-23T14:21:42.722Z,3.67
2022-08-23T14:24:10.485Z,5.72
2022-08-23T14:26:38.248Z,1.92
2022-08-23T14:29:19.212Z,2.03
2022-08-23T14:31:50.448Z,2.35
2022-08-23T14:34:20.289Z,3.30
2022-08-23T14:39:35.661Z,4.07
2022-08-23T14:42:06.291Z,2.53
2022-08-23T14:44:35.953Z,3.42
2022-08-23T14:47:08.157Z,3.38
2022-08-23T14:49:39.161Z,5.43
2022-08-23T14:52:06.846Z,2.92
2022-08-23T14:54:34.590Z,3.08
2022-08-23T14:57:02.121Z,2.97
2022-08-23T14:59:29.338Z,4.25
2022-08-23T15:01:57.402Z,2.72
2022-08-23T15:04:34.070Z,2.45
2022-08-23T15:07:19.824Z,3.35
2022-08-23T15:09:48.122Z,3.38
2022-08-23T15:15:03.125Z,3.42
2022-08-23T15:17:31.681Z,2.67
2022-08-23T15:19:59.410Z,3.50
2022-08-23T15:22:27.683Z,3.22
2022-08-23T15:24:54.697Z,2.92
2022-08-23T15:27:22.324Z,3.30
2022-08-23T15:29:49.256Z,3.10
2022-08-23T15:32:22.230Z,2.80
2022-08-23T15:34:50.489Z,4.05
2022-08-23T15:37:20.182Z,3.55
2022-08-23T15:39:48.877Z,2.88
2022-08-23T15:42:20.526Z,2.20
2022-08-23T15:44:48.573Z,2.95
2022-08-23T15:47:21.588Z,2.50
2022-08-23T15:49:49.443Z,2.85
2022-08-23T15:52:17.498Z,3.40
2022-08-23T15:54:44.892Z,2.72
2022-08-23T15:57:17.738Z,2.65
2022-08-23T15:59:45.380Z,3.03
2022-08-23T16:02:12.746Z,3.22
2022-08-23T16:04:40.466Z,3.77
2022-08-23T16:07:09.295Z,4.70
2022-08-23T16:09:37.607Z,2.85
2022-08-23T16:12:05.650Z,2.35
2022-08-23T16:14:34.791Z,3.10
2022-08-23T16:17:02.988Z,3.10
2022-08-23T16:19:31.174Z,4.93
2022-08-23T16:21:58.417Z,2.60
2022-08-23T16:24:27.770Z,3.40
2022-08-23T16:26:55.752Z,2.97
2022-08-23T16:29:23.271Z,4.03
2022-08-23T16:31:52.328Z,2.70
2022-08-23T16:34:20.603Z,3.25
2022-08-23T16:36:53.789Z,3.80
2022-08-23T16:39:22.633Z,2.60
2022-08-23T16:41:50.293Z,2.40
2022-08-23T16:44:18.180Z,3.43
2022-08-23T16:46:46.155Z,3.00
2022-08-23T16:49:16.850Z,4.18
2022-08-23T16:51:44.275Z,2.33
2022-08-23T16:54:11.463Z,2.40
2022-08-23T16:56:40.732Z,3.13
2022-08-23T16:59:10.252Z,3.70
2022-08-23T17:01:45.162Z,2.53
2022-08-23T17:04:12.676Z,3.10
2022-08-23T17:06:41.330Z,4.37
2022-08-23T17:09:08.382Z,2.97
2022-08-23T17:11:36.870Z,2.40
2022-08-23T17:14:04.950Z,3.50
2022-08-23T17:16:32.557Z,2.83
2022-08-23T17:18:59.673Z,2.93
2022-08-23T17:21:27.283Z,3.90
2022-08-23T17:23:55.893Z,2.00
2022-08-23T17:26:23.797Z,2.65
2022-08-23T17:28:51.158Z,2.77
2022-08-23T17:31:19.616Z,2.73
2022-08-23T17:33:47.196Z,3.30
2022-08-23T17:36:28.824Z,3.33
2022-08-23T17:38:57.495Z,3.27
2022-08-23T17:41:25.384Z,4.33
2022-08-23T17:43:52.322Z,2.70
2022-08-23T17:46:20.711Z,3.87
2022-08-23T17:48:47.623Z,4.93
2022-08-23T17:51:14.570Z,4.20
2022-08-23T17:53:41.654Z,3.07
2022-08-23T17:56:12.295Z,3.50
2022-08-23T17:58:39.772Z,2.57
2022-08-23T18:01:07.133Z,2.60
2022-08-23T18:03:34.106Z,3.30
2022-08-23T18:06:01.635Z,4.47
2022-08-23T18:08:44.905Z,2.93
2022-08-23T18:11:13.801Z,4.07
2022-08-23T18:13:40.892Z,2.53
2022-08-23T18:16:08.095Z,2.50
2022-08-23T18:18:35.121Z,2.50
2022-08-23T18:21:04.583Z,3.33
2022-08-23T18:23:31.446Z,3.90
2022-08-23T18:25:58.341Z,3.00
2022-08-23T18:28:26.553Z,3.50
2022-08-23T18:30:55.675Z,3.50
2022-08-23T18:33:25.309Z,3.17
2022-08-23T18:35:58.397Z,2.43
2022-08-23T18:38:25.293Z,3.70
2022-08-23T18:40:52.251Z,6.03
2022-08-23T18:43:21.126Z,2.90
2022-08-23T18:45:53.534Z,2.57
2022-08-23T18:48:22.247Z,4.40
2022-08-23T18:50:50.350Z,3.43
2022-08-23T18:53:19.442Z,3.67
2022-08-23T18:55:46.484Z,3.97
2022-08-23T18:58:13.396Z,3.20
2022-08-23T19:00:41.682Z,5.90
2022-08-23T19:03:11.049Z,5.67
2022-08-23T19:05:41.936Z,7.37
2022-08-23T19:08:10.579Z,7.43
2022-08-23T19:10:39.367Z,6.27
2022-08-23T19:13:08.389Z,5.60
2022-08-23T19:15:36.852Z,6.07
2022-08-23T19:18:04.529Z,5.40
2022-08-23T19:20:33.318Z,6.30
2022-08-23T19:23:00.346Z,8.23
2022-08-23T19:25:27.843Z,6.93
2022-08-23T19:27:58.615Z,6.37
2022-08-23T19:30:28.590Z,5.97
2022-08-23T19:32:56.475Z,9.37
2022-08-23T19:35:23.563Z,10.13
2022-08-23T19:37:51.782Z,13.17
2022-08-23T19:40:18.976Z,11.77
2022-08-23T19:42:46.186Z,13.43
2022-08-23T19:45:13.483Z,11.03
2022-08-23T19:47:40.690Z,8.57
2022-08-23T19:50:09.580Z,9.77
2022-08-23T19:52:37.464Z,9.70
2022-08-23T19:55:07.203Z,8.50
2022-08-23T19:57:35.319Z,7.77
2022-08-23T20:00:09.401Z,6.97
2022-08-23T20:02:36.319Z,10.10
2022-08-23T20:05:05.408Z,8.73
2022-08-23T20:07:32.974Z,20.23
2022-08-23T20:09:59.995Z,28.77
2022-08-23T20:12:28.947Z,35.70
2022-08-23T20:14:55.947Z,16.90
2022-08-23T20:17:23.193Z,12.67
2022-08-23T20:19:50.267Z,11.40
2022-08-23T20:22:35.674Z,7.10
2022-08-23T20:25:04.018Z,6.60
2022-08-23T20:27:33.371Z,5.43
2022-08-23T20:30:01.615Z,5.47
2022-08-23T20:32:29.472Z,5.57
2022-08-23T20:34:56.604Z,7.27
2022-08-23T20:37:24.271Z,5.50
2022-08-23T20:39:52.347Z,4.73
2022-08-23T20:42:19.695Z,4.20
2022-08-23T20:44:48.264Z,4.57
2022-08-23T20:47:15.418Z,4.37
2022-08-23T20:49:42.648Z,5.00
2022-08-23T20:52:09.756Z,3.73
2022-08-23T20:54:36.911Z,4.37
2022-08-23T20:57:04.135Z,7.00
2022-08-23T20:59:31.314Z,3.93
2022-08-23T21:02:00.051Z,4.23
2022-08-23T21:04:30.379Z,5.90
2022-08-23T21:06:58.041Z,7.67
2022-08-23T21:09:29.142Z,5.50
2022-08-23T21:11:57.166Z,5.70
2022-08-23T21:14:27.476Z,6.93
2022-08-23T21:16:54.714Z,5.30
2022-08-23T21:19:23.312Z,7.10
2022-08-23T21:21:50.616Z,7.43
2022-08-23T21:24:18.505Z,7.67
2022-08-23T21:26:45.595Z,7.07
2022-08-23T21:29:12.778Z,7.27
2022-08-23T21:31:40.450Z,5.90
2022-08-23T21:34:08.458Z,6.40
2022-08-23T21:36:38.017Z,6.20
2022-08-23T21:39:05.839Z,5.67
2022-08-23T21:41:36.745Z,6.13
2022-08-23T21:44:06.079Z,10.87
2022-08-23T21:46:33.996Z,10.80
2022-08-23T21:49:01.676Z,7.20
2022-08-23T21:51:30.941Z,6.20
2022-08-23T21:54:00.132Z,4.80
2022-08-23T21:56:28.480Z,5.77
2022-08-23T21:58:58.473Z,5.30
2022-08-23T22:01:26.225Z,5.87
2022-08-23T22:03:57.034Z,4.00
2022-08-23T22:06:25.344Z,5.37
2022-08-23T22:08:52.816Z,3.80
2022-08-23T22:11:25.280Z,4.37
2022-08-23T22:13:53.946Z,4.77
2022-08-23T22:16:21.906Z,3.97
2022-08-23T22:18:49.390Z,4.40
2022-08-23T22:21:16.743Z,5.07
2022-08-23T22:23:44.781Z,4.07
2022-08-23T22:26:14.035Z,3.53
2022-08-23T22:28:44.895Z,3.93
2022-08-23T22:31:14.359Z,3.80
2022-08-23T22:33:42.364Z,3.70
2022-08-23T22:36:14.067Z,3.77
2022-08-23T22:38:41.528Z,2.80
2022-08-23T22:41:10.034Z,3.90
2022-08-23T22:43:37.627Z,4.83
2022-08-23T22:46:06.719Z,3.20
2022-08-23T22:48:37.898Z,3.83
2022-08-23T22:51:07.512Z,3.27
2022-08-23T22:53:36.369Z,4.50
2022-08-23T22:56:05.024Z,3.60
2022-08-23T22:58:32.551Z,3.63
2022-08-23T23:01:00.077Z,4.73
2022-08-23T23:03:35.223Z,3.60
2022-08-23T23:06:04.675Z,2.87
2022-08-23T23:08:32.070Z,4.30
2022-08-23T23:11:03.414Z,3.97
2022-08-23T23:13:34.636Z,3.50
2022-08-23T23:16:06.833Z,4.20
2022-08-23T23:18:36.243Z,3.80
2022-08-23T23:21:05.231Z,3.80
2022-08-23T23:23:34.509Z,4.00
2022-08-23T23:26:03.928Z,3.60
2022-08-23T23:28:31.320Z,4.73
2022-08-23T23:30:59.728Z,4.63
2022-08-23T23:33:28.129Z,4.03
2022-08-23T23:35:57.331Z,4.33
2022-08-23T23:38:24.758Z,4.17
2022-08-23T23:40:52.202Z,3.97
2022-08-23T23:43:19.480Z,3.87
2022-08-23T23:45:47.578Z,4.40
2022-08-23T23:48:15.058Z,4.97
2022-08-23T23:50:46.514Z,4.33
2022-08-23T23:53:15.870Z,4.40
2022-08-23T23:55:43.310Z,4.00
2022-08-23T23:58:10.496Z,3.30
